sensor_id;sensor_type;location;lat;lon;timestamp;pressure;altitude;pressure_sealevel;temperature;humidity
18900;BME280;9582;52.018;6.306;2023-02-19T00:00:12;101581.03;;;10.59;100.00
18900;BME280;9582;52.018;6.306;2023-02-19T00:02:51;101583.91;;;10.52;100.00
18900;BME280;9582;52.018;6.306;2023-02-19T00:05:24;101577.06;;;10.48;100.00
18900;BME280;9582;52.018;6.306;2023-02-19T00:07:53;101583.91;;;10.52;100.00
18900;BME280;9582;52.018;6.306;2023-02-19T00:10:20;101582.28;;;10.48;100.00
18900;BME280;9582;52.018;6.306;2023-02-19T00:12:51;101585.91;;;10.43;100.00
18900;BME280;9582;52.018;6.306;2023-02-19T00:15:19;101590.09;;;10.49;100.00
18900;BME280;9582;52.018;6.306;2023-02-19T00:17:51;101591.84;;;10.49;100.00
18900;BME280;9582;52.018;6.306;2023-02-19T00:20:26;101591.88;;;10.47;100.00
18900;BME280;9582;52.018;6.306;2023-02-19T00:22:55;101577.97;;;10.47;100.00
18900;BME280;9582;52.018;6.306;2023-02-19T00:25:24;101580.59;;;10.47;100.00
18900;BME280;9582;52.018;6.306;2023-02-19T00:27:53;101578.00;;;10.45;100.00
18900;BME280;9582;52.018;6.306;2023-02-19T00:30:31;101579.66;;;10.48;100.00
18900;BME280;9582;52.018;6.306;2023-02-19T00:33:09;101588.47;;;10.45;100.00
18900;BME280;9582;52.018;6.306;2023-02-19T00:35:38;101586.72;;;10.46;100.00
18900;BME280;9582;52.018;6.306;2023-02-19T00:38:10;101583.28;;;10.43;100.00
18900;BME280;9582;52.018;6.306;2023-02-19T00:40:39;101591.16;;;10.43;100.00
18900;BME280;9582;52.018;6.306;2023-02-19T00:43:21;101594.56;;;10.46;100.00
18900;BME280;9582;52.018;6.306;2023-02-19T00:45:57;101591.94;;;10.46;100.00
18900;BME280;9582;52.018;6.306;2023-02-19T00:48:29;101584.19;;;10.42;100.00
18900;BME280;9582;52.018;6.306;2023-02-19T00:51:04;101577.16;;;10.44;100.00
18900;BME280;9582;52.018;6.306;2023-02-19T00:53:31;101593.75;;;10.43;100.00
18900;BME280;9582;52.018;6.306;2023-02-19T00:55:57;101588.63;;;10.40;100.00
18900;BME280;9582;52.018;6.306;2023-02-19T00:58:26;101592.03;;;10.42;100.00
18900;BME280;9582;52.018;6.306;2023-02-19T01:00:55;101590.31;;;10.41;100.00
18900;BME280;9582;52.018;6.306;2023-02-19T01:03:47;101585.16;;;10.40;100.00
18900;BME280;9582;52.018;6.306;2023-02-19T01:06:17;101582.59;;;10.38;100.00
18900;BME280;9582;52.018;6.306;2023-02-19T01:08:46;101578.19;;;10.39;100.00
18900;BME280;9582;52.018;6.306;2023-02-19T01:11:15;101580.06;;;10.35;100.00
18900;BME280;9582;52.018;6.306;2023-02-19T01:13:44;101577.47;;;10.35;100.00
18900;BME280;9582;52.018;6.306;2023-02-19T01:16:21;101582.63;;;10.37;100.00
18900;BME280;9582;52.018;6.306;2023-02-19T01:18:56;101585.25;;;10.37;100.00
18900;BME280;9582;52.018;6.306;2023-02-19T01:21:24;101588.72;;;10.37;100.00
18900;BME280;9582;52.018;6.306;2023-02-19T01:23:59;101588.81;;;10.34;100.00
18900;BME280;9582;52.018;6.306;2023-02-19T01:26:31;101594.84;;;10.36;100.00
18900;BME280;9582;52.018;6.306;2023-02-19T01:29:02;101594.84;;;10.36;100.00
18900;BME280;9582;52.018;6.306;2023-02-19T01:31:32;101597.31;;;10.41;100.00
18900;BME280;9582;52.018;6.306;2023-02-19T01:34:09;101596.66;;;10.34;100.00
18900;BME280;9582;52.018;6.306;2023-02-19T01:36:41;101600.69;;;10.44;100.00
18900;BME280;9582;52.018;6.306;2023-02-19T01:39:09;101601.69;;;10.40;100.00
18900;BME280;9582;52.018;6.306;2023-02-19T01:41:48;101603.28;;;10.44;100.00
18900;BME280;9582;52.018;6.306;2023-02-19T01:47:30;101601.03;;;10.34;100.00
18900;BME280;9582;52.018;6.306;2023-02-19T01:50:00;101594.03;;;10.34;100.00
18900;BME280;9582;52.018;6.306;2023-02-19T01:52:31;101601.81;;;10.36;100.00
18900;BME280;9582;52.018;6.306;2023-02-19T01:55:03;101597.31;;;10.41;100.00
18900;BME280;9582;52.018;6.306;2023-02-19T01:57:40;101602.50;;;10.42;100.00
18900;BME280;9582;52.018;6.306;2023-02-19T02:00:16;101607.91;;;10.36;100.00
18900;BME280;9582;52.018;6.306;2023-02-19T02:02:48;101602.75;;;10.35;100.00
18900;BME280;9582;52.018;6.306;2023-02-19T02:05:46;101605.47;;;10.30;100.00
18900;BME280;9582;52.018;6.306;2023-02-19T02:08:19;101602.66;;;10.38;100.00
18900;BME280;9582;52.018;6.306;2023-02-19T02:11:08;101596.72;;;10.33;100.00
18900;BME280;9582;52.018;6.306;2023-02-19T02:13:38;101603.88;;;10.26;100.00
18900;BME280;9582;52.018;6.306;2023-02-19T02:16:22;101613.03;;;10.39;100.00
18900;BME280;9582;52.018;6.306;2023-02-19T02:19:01;101606.91;;;10.40;100.00
18900;BME280;9582;52.018;6.306;2023-02-19T02:21:58;101609.88;;;10.30;100.00
18900;BME280;9582;52.018;6.306;2023-02-19T02:27:52;101608.09;;;10.30;100.00
18900;BME280;9582;52.018;6.306;2023-02-19T02:30:30;101605.38;;;10.33;100.00
18900;BME280;9582;52.018;6.306;2023-02-19T02:33:07;101601.22;;;10.28;100.00
18900;BME280;9582;52.018;6.306;2023-02-19T02:35:46;101609.03;;;10.29;100.00
18900;BME280;9582;52.018;6.306;2023-02-19T02:38:24;101612.50;;;10.30;100.00
18900;BME280;9582;52.018;6.306;2023-02-19T02:40:54;101610.78;;;10.29;100.00
18900;BME280;9582;52.018;6.306;2023-02-19T02:43:28;101607.38;;;10.27;100.00
18900;BME280;9582;52.018;6.306;2023-02-19T02:46:00;101606.44;;;10.28;100.00
18900;BME280;9582;52.018;6.306;2023-02-19T02:48:33;101612.53;;;10.28;100.00
18900;BME280;9582;52.018;6.306;2023-02-19T02:51:08;101605.63;;;10.26;100.00
18900;BME280;9582;52.018;6.306;2023-02-19T02:53:44;101617.91;;;10.24;100.00
18900;BME280;9582;52.018;6.306;2023-02-19T02:56:33;101618.81;;;10.23;100.00
18900;BME280;9582;52.018;6.306;2023-02-19T02:59:03;101620.63;;;10.19;100.00
18900;BME280;9582;52.018;6.306;2023-02-19T03:01:38;101622.47;;;10.17;100.00
18900;BME280;9582;52.018;6.306;2023-02-19T03:04:29;101632.91;;;10.17;100.00
18900;BME280;9582;52.018;6.306;2023-02-19T03:07:04;101633.72;;;10.19;100.00
18900;BME280;9582;52.018;6.306;2023-02-19T03:09:36;101626.88;;;10.15;100.00
18900;BME280;9582;52.018;6.306;2023-02-19T03:12:14;101631.19;;;10.16;100.00
18900;BME280;9582;52.018;6.306;2023-02-19T03:15:08;101633.88;;;10.13;100.00
18900;BME280;9582;52.018;6.306;2023-02-19T03:18:00;101637.38;;;10.12;100.00
18900;BME280;9582;52.018;6.306;2023-02-19T03:20:57;101642.72;;;10.09;100.00
18900;BME280;9582;52.018;6.306;2023-02-19T03:23:32;101647.84;;;10.12;100.00
18900;BME280;9582;52.018;6.306;2023-02-19T03:26:27;101642.59;;;10.14;100.00
18900;BME280;9582;52.018;6.306;2023-02-19T03:28:57;101656.50;;;10.16;100.00
18900;BME280;9582;52.018;6.306;2023-02-19T03:31:44;101653.06;;;10.12;100.00
18900;BME280;9582;52.018;6.306;2023-02-19T03:34:23;101653.06;;;10.12;100.00
18900;BME280;9582;52.018;6.306;2023-02-19T03:36:57;101642.59;;;10.14;100.00
18900;BME280;9582;52.018;6.306;2023-02-19T03:39:30;101651.34;;;10.11;100.00
18900;BME280;9582;52.018;6.306;2023-02-19T03:42:27;101653.06;;;10.12;100.00
18900;BME280;9582;52.018;6.306;2023-02-19T03:45:08;101655.69;;;10.12;100.00
18900;BME280;9582;52.018;6.306;2023-02-19T03:47:44;101665.28;;;10.12;100.00
18900;BME280;9582;52.018;6.306;2023-02-19T03:50:41;101665.84;;;10.23;100.00
18900;BME280;9582;52.018;6.306;2023-02-19T03:53:22;101656.50;;;10.14;100.00
18900;BME280;9582;52.018;6.306;2023-02-19T03:56:03;101673.94;;;10.15;100.00
18900;BME280;9582;52.018;6.306;2023-02-19T03:58:43;101673.94;;;10.15;100.00
18900;BME280;9582;52.018;6.306;2023-02-19T04:01:23;101676.44;;;10.18;100.00
18900;BME280;9582;52.018;6.306;2023-02-19T04:04:26;101686.84;;;10.20;100.00
18900;BME280;9582;52.018;6.306;2023-02-19T04:06:57;101670.38;;;10.16;100.00
18900;BME280;9582;52.018;6.306;2023-02-19T04:09:36;101673.84;;;10.18;100.00
18900;BME280;9582;52.018;6.306;2023-02-19T04:12:11;101684.31;;;10.17;100.00
18900;BME280;9582;52.018;6.306;2023-02-19T04:14:45;101687.94;;;10.11;100.00
18900;BME280;9582;52.018;6.306;2023-02-19T04:17:23;101689.66;;;10.12;100.00
18900;BME280;9582;52.018;6.306;2023-02-19T04:19:59;101686.94;;;10.17;100.00
18900;BME280;9582;52.018;6.306;2023-02-19T04:22:35;101703.47;;;10.17;100.00
18900;BME280;9582;52.018;6.306;2023-02-19T04:25:06;101711.31;;;10.17;100.00
18900;BME280;9582;52.018;6.306;2023-02-19T04:27:39;101701.75;;;10.16;100.00
18900;BME280;9582;52.018;6.306;2023-02-19T04:30:10;101701.75;;;10.16;100.00
18900;BME280;9582;52.018;6.306;2023-02-19T04:32:37;101707.81;;;10.18;100.00
18900;BME280;9582;52.018;6.306;2023-02-19T04:35:04;101710.50;;;10.15;100.00
18900;BME280;9582;52.018;6.306;2023-02-19T04:37:32;101714.81;;;10.16;100.00
18900;BME280;9582;52.018;6.306;2023-02-19T04:40:00;101707.84;;;10.17;100.00
18900;BME280;9582;52.018;6.306;2023-02-19T04:42:29;101712.28;;;10.13;100.00
18900;BME280;9582;52.018;6.306;2023-02-19T04:44:57;101718.28;;;10.17;100.00
18900;BME280;9582;52.018;6.306;2023-02-19T04:47:29;101722.56;;;10.19;100.00
18900;BME280;9582;52.018;6.306;2023-02-19T04:49:58;101716.59;;;10.16;100.00
18900;BME280;9582;52.018;6.306;2023-02-19T04:52:28;101726.09;;;10.18;100.00
18900;BME280;9582;52.018;6.306;2023-02-19T04:54:56;101730.50;;;10.16;100.00
18900;BME280;9582;52.018;6.306;2023-02-19T04:57:31;101737.50;;;10.16;100.00
18900;BME280;9582;52.018;6.306;2023-02-19T05:00:06;101743.53;;;10.18;100.00
18900;BME280;9582;52.018;6.306;2023-02-19T05:02:37;101744.50;;;10.14;100.00
18900;BME280;9582;52.018;6.306;2023-02-19T05:05:12;101752.38;;;10.12;100.00
18900;BME280;9582;52.018;6.306;2023-02-19T05:07:39;101752.31;;;10.15;100.00
18900;BME280;9582;52.018;6.306;2023-02-19T05:10:09;101750.00;;;10.05;100.00
18900;BME280;9582;52.018;6.306;2023-02-19T05:12:40;101755.31;;;10.00;100.00
18900;BME280;9582;52.018;6.306;2023-02-19T05:15:08;101770.88;;;10.05;100.00
18900;BME280;9582;52.018;6.306;2023-02-19T05:17:35;101767.34;;;10.06;100.00
18900;BME280;9582;52.018;6.306;2023-02-19T05:20:02;101768.22;;;10.06;100.00
18900;BME280;9582;52.018;6.306;2023-02-19T05:22:29;101764.97;;;9.98;100.00
18900;BME280;9582;52.018;6.306;2023-02-19T05:25:04;101773.53;;;10.03;100.00
18900;BME280;9582;52.018;6.306;2023-02-19T05:27:44;101775.34;;;10.01;100.00
18900;BME280;9582;52.018;6.306;2023-02-19T05:30:12;101776.16;;;10.03;100.00
18900;BME280;9582;52.018;6.306;2023-02-19T05:32:40;101777.91;;;10.03;100.00
18900;BME280;9582;52.018;6.306;2023-02-19T05:35:11;101793.72;;;9.98;100.00
18900;BME280;9582;52.018;6.306;2023-02-19T05:37:38;101785.94;;;9.95;100.00
18900;BME280;9582;52.018;6.306;2023-02-19T05:40:08;101782.53;;;9.93;100.00
18900;BME280;9582;52.018;6.306;2023-02-19T05:42:36;101785.22;;;9.90;100.00
18900;BME280;9582;52.018;6.306;2023-02-19T05:45:07;101785.22;;;9.90;100.00
18900;BME280;9582;52.018;6.306;2023-02-19T05:47:41;101789.50;;;9.93;100.00
18900;BME280;9582;52.018;6.306;2023-02-19T05:50:07;101791.19;;;9.94;100.00
18900;BME280;9582;52.018;6.306;2023-02-19T05:52:37;101782.53;;;9.93;100.00
18900;BME280;9582;52.018;6.306;2023-02-19T05:55:06;101789.59;;;9.90;100.00
18900;BME280;9582;52.018;6.306;2023-02-19T05:57:40;101797.41;;;9.90;100.00
18900;BME280;9582;52.018;6.306;2023-02-19T06:00:08;101795.69;;;9.88;100.00
18900;BME280;9582;52.018;6.306;2023-02-19T06:02:44;101801.91;;;9.84;100.00
18900;BME280;9582;52.018;6.306;2023-02-19T06:05:13;101803.59;;;9.85;100.00
18900;BME280;9582;52.018;6.306;2023-02-19T06:07:44;101807.09;;;9.86;100.00
18900;BME280;9582;52.018;6.306;2023-02-19T06:10:12;101807.81;;;9.91;100.00
18900;BME280;9582;52.018;6.306;2023-02-19T06:12:46;101813.09;;;9.90;100.00
18900;BME280;9582;52.018;6.306;2023-02-19T06:15:13;101818.47;;;9.83;100.00
18900;BME280;9582;52.018;6.306;2023-02-19T06:17:42;101821.97;;;9.82;100.00
18900;BME280;9582;52.018;6.306;2023-02-19T06:20:12;101829.94;;;9.78;100.00
18900;BME280;9582;52.018;6.306;2023-02-19T06:22:44;101829.94;;;9.78;100.00
18900;BME280;9582;52.018;6.306;2023-02-19T06:25:10;101823.03;;;9.75;100.00
18900;BME280;9582;52.018;6.306;2023-02-19T06:27:44;101836.09;;;9.75;100.00
18900;BME280;9582;52.018;6.306;2023-02-19T06:30:11;101836.09;;;9.75;100.00
18900;BME280;9582;52.018;6.306;2023-02-19T06:32:43;101850.97;;;9.73;100.00
18900;BME280;9582;52.018;6.306;2023-02-19T06:35:11;101860.53;;;9.73;100.00
18900;BME280;9582;52.018;6.306;2023-02-19T06:37:39;101864.84;;;9.74;100.00
18900;BME280;9582;52.018;6.306;2023-02-19T06:40:11;101874.41;;;9.75;100.00
18900;BME280;9582;52.018;6.306;2023-02-19T06:42:38;101877.97;;;9.72;100.00
18900;BME280;9582;52.018;6.306;2023-02-19T06:45:09;101882.31;;;9.72;100.00
18900;BME280;9582;52.018;6.306;2023-02-19T06:47:36;101885.00;;;9.69;100.00
18900;BME280;9582;52.018;6.306;2023-02-19T06:50:03;101884.13;;;9.70;100.00
18900;BME280;9582;52.018;6.306;2023-02-19T06:52:31;101885.88;;;9.69;100.00
18900;BME280;9582;52.018;6.306;2023-02-19T06:55:04;101883.22;;;9.71;100.00
18900;BME280;9582;52.018;6.306;2023-02-19T06:57:46;101894.50;;;9.73;100.00
18900;BME280;9582;52.018;6.306;2023-02-19T07:00:18;101897.09;;;9.73;100.00
18900;BME280;9582;52.018;6.306;2023-02-19T07:02:50;101889.38;;;9.68;100.00
18900;BME280;9582;52.018;6.306;2023-02-19T07:05:27;101903.34;;;9.67;100.00
18900;BME280;9582;52.018;6.306;2023-02-19T07:08:00;101904.97;;;9.71;100.00
18900;BME280;9582;52.018;6.306;2023-02-19T07:10:28;101910.31;;;9.67;100.00
18900;BME280;9582;52.018;6.306;2023-02-19T07:12:55;101916.34;;;9.69;100.00
18900;BME280;9582;52.018;6.306;2023-02-19T07:15:32;101918.88;;;9.73;100.00
18900;BME280;9582;52.018;6.306;2023-02-19T07:17:59;101916.28;;;9.72;100.00
18900;BME280;9582;52.018;6.306;2023-02-19T07:20:28;101921.50;;;9.72;100.00
18900;BME280;9582;52.018;6.306;2023-02-19T07:22:58;101932.69;;;9.77;100.00
18900;BME280;9582;52.018;6.306;2023-02-19T07:25:26;101936.97;;;9.81;100.00
18900;BME280;9582;52.018;6.306;2023-02-19T07:28:02;101941.31;;;9.82;100.00
18900;BME280;9582;52.018;6.306;2023-02-19T07:30:38;101940.47;;;9.80;100.00
18900;BME280;9582;52.018;6.306;2023-02-19T07:33:12;101937.91;;;9.77;100.00
18900;BME280;9582;52.018;6.306;2023-02-19T07:35:45;101944.91;;;9.76;100.00
18900;BME280;9582;52.018;6.306;2023-02-19T07:38:14;101948.56;;;9.69;100.00
18900;BME280;9582;52.018;6.306;2023-02-19T07:40:52;101967.63;;;9.73;100.00
18900;BME280;9582;52.018;6.306;2023-02-19T07:43:18;101967.56;;;9.76;100.00
18900;BME280;9582;52.018;6.306;2023-02-19T07:45:50;101956.19;;;9.78;100.00
18900;BME280;9582;52.018;6.306;2023-02-19T07:48:20;101959.78;;;9.73;100.00
18900;BME280;9582;52.018;6.306;2023-02-19T07:50:50;101970.19;;;9.74;100.00
18900;BME280;9582;52.018;6.306;2023-02-19T07:53:20;101980.63;;;9.76;100.00
18900;BME280;9582;52.018;6.306;2023-02-19T07:55:47;101975.28;;;9.80;100.00
18900;BME280;9582;52.018;6.306;2023-02-19T07:58:16;101977.81;;;9.83;100.00
18900;BME280;9582;52.018;6.306;2023-02-19T08:00:46;101979.56;;;9.83;100.00
18900;BME280;9582;52.018;6.306;2023-02-19T08:03:14;101974.31;;;9.84;100.00
18900;BME280;9582;52.018;6.306;2023-02-19T08:05:42;101980.38;;;9.85;100.00
18900;BME280;9582;52.018;6.306;2023-02-19T08:08:16;101976.88;;;9.88;100.00
18900;BME280;9582;52.018;6.306;2023-02-19T08:10:45;101985.59;;;9.85;100.00
18900;BME280;9582;52.018;6.306;2023-02-19T08:13:33;101983.94;;;9.82;100.00
18900;BME280;9582;52.018;6.306;2023-02-19T08:16:11;101991.81;;;9.81;100.00
18900;BME280;9582;52.018;6.306;2023-02-19T08:18:53;101995.25;;;9.83;100.00
18900;BME280;9582;52.018;6.306;2023-02-19T08:21:20;102004.75;;;9.87;100.00
18900;BME280;9582;52.018;6.306;2023-02-19T08:23:48;102002.22;;;9.82;100.00
18900;BME280;9582;52.018;6.306;2023-02-19T08:26:23;102003.13;;;9.81;100.00
18900;BME280;9582;52.018;6.306;2023-02-19T08:28:54;102019.81;;;9.76;100.00
18900;BME280;9582;52.018;6.306;2023-02-19T08:31:23;102016.22;;;9.80;100.00
18900;BME280;9582;52.018;6.306;2023-02-19T08:33:52;102011.84;;;9.80;100.00
18900;BME280;9582;52.018;6.306;2023-02-19T08:36:20;102019.56;;;9.85;100.00
18900;BME280;9582;52.018;6.306;2023-02-19T08:38:50;102022.22;;;9.83;100.00
18900;BME280;9582;52.018;6.306;2023-02-19T08:41:17;102018.75;;;9.83;100.00
18900;BME280;9582;52.018;6.306;2023-02-19T08:43:50;102033.47;;;9.87;100.00
18900;BME280;9582;52.018;6.306;2023-02-19T08:46:20;102039.50;;;9.91;100.00
18900;BME280;9582;52.018;6.306;2023-02-19T08:48:55;102035.97;;;9.93;100.00
18900;BME280;9582;52.018;6.306;2023-02-19T08:51:27;102046.38;;;9.95;100.00
18900;BME280;9582;52.018;6.306;2023-02-19T08:53:56;102052.38;;;9.98;100.00
18900;BME280;9582;52.018;6.306;2023-02-19T08:56:23;102054.94;;;10.01;100.00
18900;BME280;9582;52.018;6.306;2023-02-19T08:58:54;102068.88;;;10.00;100.00
18900;BME280;9582;52.018;6.306;2023-02-19T09:01:23;102076.72;;;10.00;100.00
18900;BME280;9582;52.018;6.306;2023-02-19T09:03:52;102061.09;;;9.99;100.00
18900;BME280;9582;52.018;6.306;2023-02-19T09:06:21;102063.56;;;10.05;100.00
18900;BME280;9582;52.018;6.306;2023-02-19T09:08:59;102057.34;;;10.10;100.00
18900;BME280;9582;52.018;6.306;2023-02-19T09:11:29;102060.78;;;10.12;100.00
18900;BME280;9582;52.018;6.306;2023-02-19T09:14:08;102068.50;;;10.18;100.00
18900;BME280;9582;52.018;6.306;2023-02-19T09:16:36;102074.63;;;10.17;100.00
18900;BME280;9582;52.018;6.306;2023-02-19T09:19:05;102067.66;;;10.16;100.00
18900;BME280;9582;52.018;6.306;2023-02-19T09:21:32;102066.84;;;10.14;100.00
18900;BME280;9582;52.018;6.306;2023-02-19T09:24:11;102071.28;;;10.09;100.00
18900;BME280;9582;52.018;6.306;2023-02-19T09:26:39;102084.28;;;10.12;100.00
18900;BME280;9582;52.018;6.306;2023-02-19T09:29:05;102086.81;;;10.18;100.00
18900;BME280;9582;52.018;6.306;2023-02-19T09:31:32;102095.41;;;10.23;100.00
18900;BME280;9582;52.018;6.306;2023-02-19T09:34:01;102104.06;;;10.25;100.00
18900;BME280;9582;52.018;6.306;2023-02-19T09:36:31;102101.41;;;10.27;100.00
18900;BME280;9582;52.018;6.306;2023-02-19T09:38:59;102102.25;;;10.27;100.00
18900;BME280;9582;52.018;6.306;2023-02-19T09:41:34;102141.41;;;10.30;100.00
18900;BME280;9582;52.018;6.306;2023-02-19T09:44:06;102146.63;;;10.30;100.00
18900;BME280;9582;52.018;6.306;2023-02-19T09:46:42;102168.34;;;10.34;100.00
18900;BME280;9582;52.018;6.306;2023-02-19T09:49:16;102190.94;;;10.36;100.00
18900;BME280;9582;52.018;6.306;2023-02-19T09:51:51;102207.63;;;10.31;100.00
18900;BME280;9582;52.018;6.306;2023-02-19T09:54:24;102205.06;;;10.28;100.00
18900;BME280;9582;52.018;6.306;2023-02-19T09:56:59;102203.25;;;10.33;100.00
18900;BME280;9582;52.018;6.306;2023-02-19T09:59:37;102212.34;;;10.15;100.00
18900;BME280;9582;52.018;6.306;2023-02-19T10:02:11;102221.53;;;9.90;100.00
18900;BME280;9582;52.018;6.306;2023-02-19T10:04:46;102226.22;;;9.73;100.00
18900;BME280;9582;52.018;6.306;2023-02-19T10:07:16;102242.88;;;9.66;100.00
18900;BME280;9582;52.018;6.306;2023-02-19T10:09:52;102245.16;;;9.37;100.00
18900;BME280;9582;52.018;6.306;2023-02-19T10:12:29;102257.75;;;9.10;100.00
18900;BME280;9582;52.018;6.306;2023-02-19T10:14:58;102259.81;;;8.90;100.00
18900;BME280;9582;52.018;6.306;2023-02-19T10:17:33;102250.47;;;8.76;100.00
18900;BME280;9582;52.018;6.306;2023-02-19T10:20:05;102253.94;;;8.78;100.00
18900;BME280;9582;52.018;6.306;2023-02-19T10:22:35;102247.81;;;8.80;100.00
18900;BME280;9582;52.018;6.306;2023-02-19T10:25:11;102251.28;;;8.79;100.00
18900;BME280;9582;52.018;6.306;2023-02-19T10:27:47;102261.59;;;8.88;100.00
18900;BME280;9582;52.018;6.306;2023-02-19T10:30:29;102280.72;;;8.89;100.00
18900;BME280;9582;52.018;6.306;2023-02-19T10:33:02;102280.56;;;8.99;100.00
18900;BME280;9582;52.018;6.306;2023-02-19T10:35:29;102291.84;;;9.00;100.00
18900;BME280;9582;52.018;6.306;2023-02-19T10:38:00;102300.47;;;9.05;100.00
18900;BME280;9582;52.018;6.306;2023-02-19T10:40:33;102306.69;;;8.96;100.00
18900;BME280;9582;52.018;6.306;2023-02-19T10:43:19;102310.22;;;8.92;100.00
18900;BME280;9582;52.018;6.306;2023-02-19T10:45:52;102310.09;;;9.01;100.00
18900;BME280;9582;52.018;6.306;2023-02-19T10:48:23;102308.38;;;8.99;100.00
18900;BME280;9582;52.018;6.306;2023-02-19T10:50:59;102317.03;;;9.02;100.00
18900;BME280;9582;52.018;6.306;2023-02-19T10:53:40;102321.56;;;8.91;100.00
18900;BME280;9582;52.018;6.306;2023-02-19T10:56:22;102315.63;;;8.80;100.00
18900;BME280;9582;52.018;6.306;2023-02-19T10:59:20;102321.66;;;8.82;100.00
18900;BME280;9582;52.018;6.306;2023-02-19T11:01:58;102327.63;;;8.90;100.00
18900;BME280;9582;52.018;6.306;2023-02-19T11:04:27;102329.53;;;8.79;100.00
18900;BME280;9582;52.018;6.306;2023-02-19T11:06:57;102316.28;;;8.93;100.00
18900;BME280;9582;52.018;6.306;2023-02-19T11:09:38;102326.53;;;9.08;100.00
18900;BME280;9582;52.018;6.306;2023-02-19T11:12:08;102324.78;;;9.08;100.00
18900;BME280;9582;52.018;6.306;2023-02-19T11:14:40;102315.09;;;9.15;100.00
18900;BME280;9582;52.018;6.306;2023-02-19T11:17:23;102313.44;;;9.11;100.00
18900;BME280;9582;52.018;6.306;2023-02-19T11:19:57;102303.81;;;9.13;100.00
18900;BME280;9582;52.018;6.306;2023-02-19T11:22:38;102307.31;;;9.12;100.00
18900;BME280;9582;52.018;6.306;2023-02-19T11:25:18;102299.47;;;9.13;100.00
18900;BME280;9582;52.018;6.306;2023-02-19T11:27:54;102305.50;;;9.17;100.00
18900;BME280;9582;52.018;6.306;2023-02-19T11:30:39;102304.59;;;9.18;100.00
18900;BME280;9582;52.018;6.306;2023-02-19T11:33:24;102304.59;;;9.19;100.00
18900;BME280;9582;52.018;6.306;2023-02-19T11:35:57;102302.03;;;9.16;100.00
18900;BME280;9582;52.018;6.306;2023-02-19T11:38:25;102306.34;;;9.17;100.00
18900;BME280;9582;52.018;6.306;2023-02-19T11:40:58;102309.91;;;9.13;100.00
18900;BME280;9582;52.018;6.306;2023-02-19T11:43:38;102316.28;;;8.94;100.00
18900;BME280;9582;52.018;6.306;2023-02-19T11:46:23;102313.91;;;8.78;100.00
18900;BME280;9582;52.018;6.306;2023-02-19T11:49:06;102317.44;;;8.74;100.00
18900;BME280;9582;52.018;6.306;2023-02-19T11:52:02;102328.69;;;8.76;100.00
18900;BME280;9582;52.018;6.306;2023-02-19T11:54:42;102333.75;;;8.88;100.00
18900;BME280;9582;52.018;6.306;2023-02-19T11:57:35;102332.91;;;8.87;100.00
18900;BME280;9582;52.018;6.306;2023-02-19T12:00:27;102338.03;;;8.93;100.00
18900;BME280;9582;52.018;6.306;2023-02-19T12:03:09;102331.34;;;8.74;100.00
18900;BME280;9582;52.018;6.306;2023-02-19T12:05:46;102336.63;;;8.66;100.00
18900;BME280;9582;52.018;6.306;2023-02-19T12:08:51;102335.72;;;8.70;100.00
18900;BME280;9582;52.018;6.306;2023-02-19T12:11:40;102343.56;;;8.70;100.00
18900;BME280;9582;52.018;6.306;2023-02-19T12:17:17;102347.97;;;8.64;100.00
18900;BME280;9582;52.018;6.306;2023-02-19T12:20:10;102341.81;;;8.69;100.00
18900;BME280;9582;52.018;6.306;2023-02-19T12:22:49;102341.91;;;8.62;100.00
18900;BME280;9582;52.018;6.306;2023-02-19T12:25:29;102337.50;;;8.67;100.00
18900;BME280;9582;52.018;6.306;2023-02-19T12:28:27;102340.16;;;8.65;100.00
18900;BME280;9582;52.018;6.306;2023-02-19T12:31:15;102342.00;;;8.57;100.00
18900;BME280;9582;52.018;6.306;2023-02-19T12:34:03;102347.22;;;8.56;100.00
18900;BME280;9582;52.018;6.306;2023-02-19T12:36:46;102354.13;;;8.60;100.00
18900;BME280;9582;52.018;6.306;2023-02-19T12:39:29;102351.41;;;8.69;100.00
18900;BME280;9582;52.018;6.306;2023-02-19T12:42:27;102349.09;;;8.45;100.00
18900;BME280;9582;52.018;6.306;2023-02-19T12:45:05;102345.66;;;8.40;100.00
18900;BME280;9582;52.018;6.306;2023-02-19T12:48:02;102352.63;;;8.41;100.00
18900;BME280;9582;52.018;6.306;2023-02-19T12:50:30;102350.06;;;8.36;100.00
18900;BME280;9582;52.018;6.306;2023-02-19T12:53:08;102355.13;;;8.48;100.00
18900;BME280;9582;52.018;6.306;2023-02-19T12:55:38;102356.84;;;8.51;100.00
18900;BME280;9582;52.018;6.306;2023-02-19T12:58:18;102359.44;;;8.51;100.00
18900;BME280;9582;52.018;6.306;2023-02-19T13:01:01;102362.81;;;8.59;100.00
18900;BME280;9582;52.018;6.306;2023-02-19T13:03:31;102374.91;;;8.66;100.00
18900;BME280;9582;52.018;6.306;2023-02-19T13:06:08;102369.66;;;8.67;100.00
18900;BME280;9582;52.018;6.306;2023-02-19T13:08:42;102371.38;;;8.72;100.00
18900;BME280;9582;52.018;6.306;2023-02-19T13:11:17;102376.47;;;8.79;100.00
18900;BME280;9582;52.018;6.306;2023-02-19T13:13:51;102373.81;;;8.85;100.00
18900;BME280;9582;52.018;6.306;2023-02-19T13:16:20;102382.56;;;8.80;100.00
18900;BME280;9582;52.018;6.306;2023-02-19T13:18:59;102388.81;;;8.65;100.00
18900;BME280;9582;52.018;6.306;2023-02-19T13:21:30;102398.41;;;8.63;100.00
18900;BME280;9582;52.018;6.306;2023-02-19T13:24:34;102400.16;;;8.62;100.00
18900;BME280;9582;52.018;6.306;2023-02-19T13:27:09;102392.44;;;8.55;100.00
18900;BME280;9582;52.018;6.306;2023-02-19T13:30:04;102403.63;;;8.63;100.00
18900;BME280;9582;52.018;6.306;2023-02-19T13:32:48;102399.31;;;8.59;100.00
18900;BME280;9582;52.018;6.306;2023-02-19T13:35:27;102410.72;;;8.50;100.00
18900;BME280;9582;52.018;6.306;2023-02-19T13:38:02;102411.72;;;8.36;100.00
18900;BME280;9582;52.018;6.306;2023-02-19T13:40:32;102417.84;;;8.33;100.00
18900;BME280;9582;52.018;6.306;2023-02-19T13:43:01;102428.31;;;8.29;100.00